createdAt,value
2022-09-24T00:01:33.906Z,101037.38
2022-09-24T00:04:04.855Z,101039.31
2022-09-24T00:06:36.502Z,101031.81
2022-09-24T00:09:05.044Z,101031.34
2022-09-24T00:11:34.317Z,101034.53
2022-09-24T00:14:02.229Z,101022.44
2022-09-24T00:16:34.017Z,101025.28
2022-09-24T00:19:03.701Z,101025.38
2022-09-24T00:21:33.387Z,101029.00
2022-09-24T00:24:03.104Z,101031.06
2022-09-24T00:26:48.523Z,101027.97
2022-09-24T00:29:20.383Z,101028.78
2022-09-24T00:31:48.705Z,101030.38
2022-09-24T00:34:16.621Z,101025.59
2022-09-24T00:36:46.790Z,101030.63
2022-09-24T00:39:15.697Z,101036.34
2022-09-24T00:41:48.850Z,101028.38
2022-09-24T00:44:48.923Z,101032.47
2022-09-24T00:47:29.592Z,101025.84
2022-09-24T00:50:06.228Z,101029.41
2022-09-24T00:52:35.193Z,101027.47
2022-09-24T00:55:03.076Z,101020.38
2022-09-24T00:57:31.000Z,101022.00
2022-09-24T01:00:00.560Z,101023.81
2022-09-24T01:02:28.445Z,101020.16
2022-09-24T01:04:56.804Z,101021.22
2022-09-24T01:07:25.473Z,101014.03
2022-09-24T01:09:53.759Z,101013.59
2022-09-24T01:12:30.272Z,101017.47
2022-09-24T01:15:09.309Z,101021.81
2022-09-24T01:17:44.446Z,101014.38
2022-09-24T01:20:54.150Z,101019.75
2022-09-24T01:23:48.779Z,101009.50
2022-09-24T01:26:38.891Z,101015.66
2022-09-24T01:29:32.069Z,101006.97
2022-09-24T01:32:06.013Z,101003.94
2022-09-24T01:34:39.113Z,101009.06
2022-09-24T01:37:07.662Z,100996.16
2022-09-24T01:39:38.051Z,100998.09
2022-09-24T01:42:07.991Z,100994.44
2022-09-24T01:44:38.395Z,100998.31
2022-09-24T01:47:08.491Z,100998.78
2022-09-24T01:49:36.838Z,100987.81
2022-09-24T01:52:10.995Z,100983.50
2022-09-24T01:54:43.269Z,100985.78
2022-09-24T01:57:14.489Z,100981.47
2022-09-24T01:59:46.073Z,100981.47
2022-09-24T02:02:21.439Z,100972.31
2022-09-24T02:04:54.959Z,100972.69
2022-09-24T02:07:28.760Z,100970.75
2022-09-24T02:09:56.821Z,100971.44
2022-09-24T02:12:29.814Z,100972.56
2022-09-24T02:15:03.967Z,100966.75
2022-09-24T02:17:36.325Z,100969.81
2022-09-24T02:20:09.603Z,100961.28
2022-09-24T02:22:38.436Z,100957.41
2022-09-24T02:25:10.173Z,100955.91
2022-09-24T02:27:37.895Z,100958.28
2022-09-24T02:30:10.973Z,100950.56
2022-09-24T02:32:41.571Z,100961.50
2022-09-24T02:35:11.152Z,100957.28
2022-09-24T02:37:41.860Z,100951.09
2022-09-24T02:40:12.871Z,100954.28
2022-09-24T02:42:42.363Z,100964.09
2022-09-24T02:45:14.224Z,100953.59
2022-09-24T02:47:42.028Z,100945.38
2022-09-24T02:50:10.668Z,100939.81
2022-09-24T02:52:38.509Z,100942.88
2022-09-24T02:55:06.850Z,100935.81
2022-09-24T02:57:34.766Z,100942.00
2022-09-24T03:00:03.249Z,100932.53
2022-09-24T03:02:32.481Z,100934.38
2022-09-24T03:05:00.318Z,100926.75
2022-09-24T03:07:28.050Z,100922.63
2022-09-24T03:09:56.054Z,100921.06
2022-09-24T03:12:23.777Z,100927.31
2022-09-24T03:14:51.524Z,100924.22
2022-09-24T03:17:19.286Z,100920.34
2022-09-24T03:19:48.406Z,100921.97
2022-09-24T03:22:16.213Z,100924.94
2022-09-24T03:24:44.032Z,100922.53
2022-09-24T03:27:11.850Z,100920.13
2022-09-24T03:29:57.046Z,100926.09
2022-09-24T03:32:25.150Z,100920.59
2022-09-24T03:34:56.321Z,100921.06
2022-09-24T03:37:26.565Z,100916.72
2022-09-24T03:39:54.337Z,100919.47
2022-09-24T03:42:22.092Z,100905.78
2022-09-24T03:44:49.846Z,100911.59
2022-09-24T03:47:17.593Z,100901.34
2022-09-24T03:49:45.339Z,100905.22
2022-09-24T03:52:14.475Z,100899.28
2022-09-24T03:54:42.246Z,100906.72
2022-09-24T03:57:09.984Z,100899.28
2022-09-24T03:59:37.757Z,100895.78
2022-09-24T04:02:06.740Z,100895.78
2022-09-24T04:04:34.704Z,100893.38
2022-09-24T04:07:02.538Z,100889.81
2022-09-24T04:09:31.701Z,100893.72
2022-09-24T04:12:00.101Z,100893.97
2022-09-24T04:14:27.882Z,100893.97
2022-09-24T04:16:55.684Z,100895.44
2022-09-24T04:19:23.422Z,100898.50
2022-09-24T04:21:51.330Z,100891.47
2022-09-24T04:24:19.276Z,100895.34
2022-09-24T04:26:48.369Z,100887.47
2022-09-24T04:29:16.277Z,100885.06
2022-09-24T04:31:44.186Z,100888.94
2022-09-24T04:34:12.014Z,100882.69
2022-09-24T04:36:39.758Z,100886.53
2022-09-24T04:39:07.514Z,100883.00
2022-09-24T04:41:35.479Z,100880.28
2022-09-24T04:44:05.315Z,100884.94
2022-09-24T04:46:34.387Z,100892.69
2022-09-24T04:49:02.433Z,100890.28
2022-09-24T04:51:30.218Z,100889.19
2022-09-24T04:53:58.523Z,100892.00
2022-09-24T04:56:26.273Z,100885.88
2022-09-24T04:58:54.443Z,100892.25
2022-09-24T05:01:23.840Z,100889.16
2022-09-24T05:03:51.720Z,100885.28
2022-09-24T05:06:19.507Z,100888.50
2022-09-24T05:08:47.290Z,100890.88
2022-09-24T05:11:15.147Z,100887.44
2022-09-24T05:13:42.955Z,100889.38
2022-09-24T05:16:10.723Z,100891.44
2022-09-24T05:18:39.888Z,100888.34
2022-09-24T05:21:07.836Z,100886.41
2022-09-24T05:23:35.590Z,100895.06
2022-09-24T05:26:21.007Z,100894.28
2022-09-24T05:28:48.870Z,100887.91
2022-09-24T05:31:17.495Z,100903.06
2022-09-24T05:33:46.754Z,100898.72
2022-09-24T05:36:14.522Z,100901.03
2022-09-24T05:38:42.295Z,100907.97
2022-09-24T05:41:10.826Z,100900.91
2022-09-24T05:43:38.561Z,100906.28
2022-09-24T05:46:07.304Z,100904.88
2022-09-24T05:48:35.111Z,100905.47
2022-09-24T05:51:05.139Z,100916.19
2022-09-24T05:53:33.943Z,100912.41
2022-09-24T05:56:02.128Z,100910.81
2022-09-24T05:58:29.904Z,100905.34
2022-09-24T06:01:00.631Z,100908.44
2022-09-24T06:03:29.668Z,100912.28
2022-09-24T06:05:59.675Z,100909.56
2022-09-24T06:08:30.541Z,100913.44
2022-09-24T06:11:00.668Z,100911.50
2022-09-24T06:13:28.502Z,100916.97
2022-09-24T06:16:01.828Z,100914.22
2022-09-24T06:18:29.759Z,100920.84
2022-09-24T06:21:02.274Z,100917.44
2022-09-24T06:23:32.308Z,100917.44
2022-09-24T06:26:00.123Z,100926.78
2022-09-24T06:28:27.944Z,100917.78
2022-09-24T06:30:55.797Z,100922.53
2022-09-24T06:33:23.721Z,100929.16
2022-09-24T06:35:51.550Z,100924.94
2022-09-24T06:38:20.462Z,100932.47
2022-09-24T06:40:49.638Z,100935.56
2022-09-24T06:43:18.911Z,100935.56
2022-09-24T06:45:46.738Z,100925.41
2022-09-24T06:48:15.683Z,100935.66
2022-09-24T06:50:45.379Z,100932.13
2022-09-24T06:53:13.933Z,100930.63
2022-09-24T06:55:42.216Z,100934.28
2022-09-24T06:58:13.925Z,100942.84
2022-09-24T07:00:43.044Z,100943.63
2022-09-24T07:03:16.473Z,100937.47
2022-09-24T07:05:44.631Z,100937.47
2022-09-24T07:08:12.412Z,100942.72
2022-09-24T07:10:43.667Z,100940.44
2022-09-24T07:13:14.262Z,100947.28
2022-09-24T07:15:42.742Z,100942.72
2022-09-24T07:18:11.539Z,100948.19
2022-09-24T07:20:39.811Z,100945.47
2022-09-24T07:23:08.799Z,100947.97
2022-09-24T07:25:37.085Z,100941.59
2022-09-24T07:28:06.348Z,100945.00
2022-09-24T07:30:36.900Z,100942.72
2022-09-24T07:33:05.208Z,100944.31
2022-09-24T07:35:33.232Z,100955.03
2022-09-24T07:38:02.834Z,100954.44
2022-09-24T07:40:31.881Z,100955.03
2022-09-24T07:43:02.556Z,100954.44
2022-09-24T07:45:31.562Z,100960.13
2022-09-24T07:48:02.886Z,100963.41
2022-09-24T07:50:39.952Z,100962.72
2022-09-24T07:53:08.092Z,100963.59
2022-09-24T07:55:39.526Z,100963.38
2022-09-24T07:58:09.035Z,100960.28
2022-09-24T08:00:36.812Z,100960.63
2022-09-24T08:03:06.134Z,100961.78
2022-09-24T08:05:34.481Z,100967.03
2022-09-24T08:08:04.926Z,100961.63
2022-09-24T08:10:32.687Z,100968.81
2022-09-24T08:13:02.581Z,100965.81
2022-09-24T08:15:30.495Z,100971.47
2022-09-24T08:18:02.254Z,100967.34
2022-09-24T08:20:31.771Z,100974.91
2022-09-24T08:23:02.296Z,100965.16
2022-09-24T08:25:31.195Z,100969.16
2022-09-24T08:28:02.864Z,100968.25
2022-09-24T08:30:31.037Z,100967.63
2022-09-24T08:32:58.961Z,100959.25
2022-09-24T08:35:27.289Z,100974.47
2022-09-24T08:37:56.523Z,100971.91
2022-09-24T08:40:27.273Z,100977.66
2022-09-24T08:43:07.522Z,100979.91
2022-09-24T08:46:02.526Z,100975.81
2022-09-24T08:48:35.483Z,100967.81
2022-09-24T08:51:08.241Z,100972.69
2022-09-24T08:53:46.295Z,100970.13
2022-09-24T08:56:15.423Z,100963.75
2022-09-24T08:58:49.889Z,100969.47
2022-09-24T09:01:28.717Z,100967.78
2022-09-24T09:04:03.520Z,100970.69
2022-09-24T09:06:50.786Z,100975.00
2022-09-24T09:09:23.988Z,100969.16
2022-09-24T09:11:53.942Z,100973.94
2022-09-24T09:14:31.127Z,100963.03
2022-09-24T09:17:03.247Z,100970.56
2022-09-24T09:19:35.522Z,100972.16
2022-09-24T09:22:12.558Z,100973.44
2022-09-24T09:24:47.507Z,100978.22
2022-09-24T09:27:17.894Z,100978.34
2022-09-24T09:29:48.152Z,100986.75
2022-09-24T09:32:31.776Z,100977.84
2022-09-24T09:35:07.703Z,100978.88
2022-09-24T09:37:45.011Z,100967.25
2022-09-24T09:40:31.995Z,100974.34
2022-09-24T09:43:04.134Z,100968.25
2022-09-24T09:45:39.531Z,100971.19
2022-09-24T09:48:12.891Z,100965.38
2022-09-24T09:50:44.079Z,100961.53
2022-09-24T09:53:20.190Z,100968.72
2022-09-24T09:55:55.425Z,100970.41
2022-09-24T09:58:27.024Z,100970.59
2022-09-24T10:01:04.837Z,100973.78
2022-09-24T10:03:35.642Z,100975.50
2022-09-24T10:06:06.505Z,100979.81
2022-09-24T10:08:34.632Z,100983.41
2022-09-24T10:11:04.688Z,100971.63
2022-09-24T10:13:32.778Z,100975.53
2022-09-24T10:16:03.831Z,100980.53
2022-09-24T10:18:35.070Z,100975.78
2022-09-24T10:21:09.155Z,100982.47
2022-09-24T10:23:39.689Z,100974.19
2022-09-24T10:26:10.421Z,100983.28
2022-09-24T10:29:00.523Z,100977.50
2022-09-24T10:31:32.656Z,100983.78
2022-09-24T10:34:02.171Z,100984.22
2022-09-24T10:36:32.522Z,100980.31
2022-09-24T10:39:05.659Z,100982.69
2022-09-24T10:41:35.888Z,100988.19
2022-09-24T10:44:11.648Z,100989.03
2022-09-24T10:47:05.460Z,100989.72
2022-09-24T10:49:47.375Z,100986.72
2022-09-24T10:52:37.612Z,100985.06
2022-09-24T10:55:18.724Z,100990.28
2022-09-24T10:57:59.128Z,100988.34
2022-09-24T11:00:36.403Z,100990.03
2022-09-24T11:03:54.191Z,100986.09
2022-09-24T11:06:36.938Z,100986.19
2022-09-24T11:09:21.291Z,100993.31
2022-09-24T11:12:01.378Z,100987.22
2022-09-24T11:14:48.595Z,101002.16
2022-09-24T11:17:29.353Z,100986.44
2022-09-24T11:20:30.759Z,100994.81
2022-09-24T11:23:34.354Z,100996.84
2022-09-24T11:26:12.411Z,100996.09
2022-09-24T11:29:13.377Z,100989.00
2022-09-24T11:31:54.365Z,100992.25
2022-09-24T11:34:42.201Z,100983.13
2022-09-24T11:37:23.309Z,100981.94
2022-09-24T11:40:05.997Z,100983.97
2022-09-24T11:42:38.991Z,100986.03
2022-09-24T11:45:21.608Z,100986.06
2022-09-24T11:48:10.053Z,100977.44
2022-09-24T11:50:54.405Z,100977.44
2022-09-24T11:53:31.449Z,100981.03
2022-09-24T11:56:02.669Z,100987.06
2022-09-24T11:58:34.696Z,100981.63
2022-09-24T12:01:12.041Z,100980.91
2022-09-24T12:03:48.053Z,100983.97
2022-09-24T12:06:20.161Z,100984.63
2022-09-24T12:08:55.233Z,100981.44
2022-09-24T12:11:30.954Z,100983.78
2022-09-24T12:14:04.880Z,100984.59
2022-09-24T12:16:38.765Z,100979.81
2022-09-24T12:19:21.294Z,100974.25
2022-09-24T12:21:52.886Z,100975.91
2022-09-24T12:24:29.933Z,100975.13
2022-09-24T12:27:01.079Z,100968.44
2022-09-24T12:29:56.747Z,100974.28
2022-09-24T12:32:48.737Z,100962.47
2022-09-24T12:35:26.950Z,100968.00
2022-09-24T12:38:00.767Z,100963.28
2022-09-24T12:41:07.434Z,100965.94
2022-09-24T12:43:41.477Z,100965.59
2022-09-24T12:46:19.241Z,100964.31
2022-09-24T12:48:49.481Z,100967.06
2022-09-24T12:51:22.758Z,100963.13
2022-09-24T12:53:59.763Z,100962.34
2022-09-24T12:56:30.787Z,100962.38
2022-09-24T12:58:59.703Z,100958.50
2022-09-24T13:01:30.450Z,100961.25
2022-09-24T13:04:26.157Z,100961.59
2022-09-24T13:06:55.965Z,100956.97
2022-09-24T13:09:36.961Z,100960.91
2022-09-24T13:12:20.162Z,100961.00
2022-09-24T13:15:01.340Z,100960.19
2022-09-24T13:17:29.917Z,100957.03
2022-09-24T13:20:00.131Z,100960.97
2022-09-24T13:22:31.383Z,100957.03
2022-09-24T13:25:23.743Z,100959.72
2022-09-24T13:28:01.577Z,100949.56
2022-09-24T13:30:39.838Z,100948.28
2022-09-24T13:33:24.038Z,100947.91
2022-09-24T13:36:05.823Z,100949.06
2022-09-24T13:38:39.885Z,100949.88
2022-09-24T13:41:23.514Z,100949.56
2022-09-24T13:43:57.158Z,100952.44
2022-09-24T13:46:26.617Z,100943.84
2022-09-24T13:48:59.523Z,100952.97
2022-09-24T13:51:31.241Z,100953.75
2022-09-24T13:54:07.052Z,100955.75
2022-09-24T13:56:35.049Z,100953.38
2022-09-24T13:59:07.548Z,100960.44
2022-09-24T14:01:42.168Z,100951.38
2022-09-24T14:04:18.322Z,100956.50
2022-09-24T14:06:50.858Z,100953.44
2022-09-24T14:09:32.740Z,100953.44
2022-09-24T14:12:02.498Z,100955.06
2022-09-24T14:14:32.014Z,100958.28
2022-09-24T14:17:10.583Z,100944.50
2022-09-24T14:19:38.390Z,100952.41
2022-09-24T14:22:12.393Z,100948.81
2022-09-24T14:24:46.390Z,100948.75
2022-09-24T14:27:18.059Z,100951.94
2022-09-24T14:29:49.653Z,100950.34
2022-09-24T14:32:24.269Z,100948.75
2022-09-24T14:34:58.478Z,100957.03
2022-09-24T14:37:29.509Z,100949.06
2022-09-24T14:40:05.267Z,100950.94
2022-09-24T14:42:38.798Z,100956.41
2022-09-24T14:45:09.543Z,100947.66
2022-09-24T14:47:39.502Z,100953.09
2022-09-24T14:50:39.892Z,100960.09
2022-09-24T14:53:21.673Z,100954.66
2022-09-24T14:55:51.149Z,100959.81
2022-09-24T14:58:26.851Z,100952.31
2022-09-24T15:00:58.174Z,100955.06
2022-09-24T15:03:33.390Z,100959.38
2022-09-24T15:06:17.787Z,100953.31
2022-09-24T15:08:52.819Z,100949.78
2022-09-24T15:11:27.755Z,100951.75
2022-09-24T15:14:15.127Z,100955.94
2022-09-24T15:16:43.886Z,100955.19
2022-09-24T15:19:20.580Z,100947.28
2022-09-24T15:21:49.725Z,100940.91
2022-09-24T15:24:18.061Z,100948.00
2022-09-24T15:26:49.364Z,100951.63
2022-09-24T15:29:24.366Z,100949.59
2022-09-24T15:31:52.513Z,100946.72
2022-09-24T15:34:20.633Z,100955.00
2022-09-24T15:36:53.971Z,100960.09
2022-09-24T15:39:23.368Z,100958.50
2022-09-24T15:41:52.869Z,100958.41
2022-09-24T15:44:23.831Z,100962.22
2022-09-24T15:46:52.666Z,100965.28
2022-09-24T15:49:22.173Z,100963.00
2022-09-24T15:51:52.733Z,100962.56
2022-09-24T15:54:21.669Z,100973.56
2022-09-24T15:56:52.338Z,100962.44
2022-09-24T15:59:22.664Z,100964.84
2022-09-24T16:01:52.924Z,100964.03
2022-09-24T16:04:20.973Z,100967.16
2022-09-24T16:06:51.147Z,100969.88
2022-09-24T16:09:18.951Z,100971.38
2022-09-24T16:11:46.821Z,100967.34
2022-09-24T16:14:14.660Z,100972.00
2022-09-24T16:16:43.841Z,100975.13
2022-09-24T16:19:12.538Z,100975.00
2022-09-24T16:21:40.500Z,100979.22
2022-09-24T16:24:08.290Z,100976.38
2022-09-24T16:26:37.492Z,100984.81
2022-09-24T16:29:06.662Z,100978.38
2022-09-24T16:31:34.552Z,100974.75
2022-09-24T16:34:03.743Z,100971.59
2022-09-24T16:36:31.503Z,100984.53
2022-09-24T16:39:00.223Z,100988.44
2022-09-24T16:41:30.832Z,100981.72
2022-09-24T16:43:58.702Z,100992.63
2022-09-24T16:46:26.872Z,100989.00
2022-09-24T16:48:54.836Z,100987.78
2022-09-24T16:51:24.276Z,100992.81
2022-09-24T16:53:56.495Z,101000.22
2022-09-24T16:56:24.739Z,100993.41
2022-09-24T16:58:52.862Z,100997.59
2022-09-24T17:01:22.197Z,100993.16
2022-09-24T17:03:52.359Z,101000.19
2022-09-24T17:06:21.504Z,100992.69
2022-09-24T17:09:08.672Z,101000.84
2022-09-24T17:11:36.663Z,101008.13
2022-09-24T17:14:06.963Z,101011.59
2022-09-24T17:16:35.314Z,101008.59
2022-09-24T17:19:03.254Z,101004.91
2022-09-24T17:21:31.263Z,101011.81
2022-09-24T17:24:04.113Z,101006.25
2022-09-24T17:26:32.000Z,101021.03
2022-09-24T17:29:01.607Z,101015.53
2022-09-24T17:31:31.896Z,101016.34
2022-09-24T17:34:01.433Z,101013.22
2022-09-24T17:36:30.459Z,101015.91
2022-09-24T17:38:59.301Z,101022.75
2022-09-24T17:41:29.896Z,101015.75
2022-09-24T17:44:00.963Z,101034.94
2022-09-24T17:46:30.074Z,101020.78
2022-09-24T17:48:59.454Z,101027.75
2022-09-24T17:51:30.538Z,101023.88
2022-09-24T17:53:58.341Z,101027.75
2022-09-24T17:56:29.670Z,101032.44
2022-09-24T17:58:57.722Z,101036.25
2022-09-24T18:01:27.851Z,101037.84
2022-09-24T18:03:58.256Z,101035.38
2022-09-24T18:06:32.048Z,101028.66
2022-09-24T18:09:02.149Z,101031.66
2022-09-24T18:11:33.885Z,101031.53
2022-09-24T18:14:02.690Z,101032.38
2022-09-24T18:16:32.260Z,101031.53
2022-09-24T18:19:02.226Z,101038.28
2022-09-24T18:21:31.071Z,101040.69
2022-09-24T18:24:00.745Z,101042.25
2022-09-24T18:26:32.892Z,101048.47
2022-09-24T18:29:03.820Z,101049.97
2022-09-24T18:31:32.080Z,101054.66
2022-09-24T18:34:03.933Z,101052.63
2022-09-24T18:36:32.361Z,101049.88
2022-09-24T18:39:00.199Z,101048.28
2022-09-24T18:41:30.224Z,101055.38
2022-09-24T18:44:00.134Z,101053.31
2022-09-24T18:46:29.743Z,101056.22
2022-09-24T18:48:58.786Z,101063.66
2022-09-24T18:51:28.523Z,101060.91
2022-09-24T18:53:58.319Z,101056.59
2022-09-24T18:56:26.975Z,101056.50
2022-09-24T18:59:00.510Z,101058.00
2022-09-24T19:01:29.153Z,101057.19
2022-09-24T19:03:57.042Z,101065.78
2022-09-24T19:06:24.857Z,101065.66
2022-09-24T19:08:52.684Z,101060.00
2022-09-24T19:11:21.529Z,101064.69
2022-09-24T19:13:51.571Z,101062.28
2022-09-24T19:16:23.739Z,101068.56
2022-09-24T19:18:52.050Z,101059.56
2022-09-24T19:21:21.003Z,101064.25
2022-09-24T19:23:50.546Z,101066.97
2022-09-24T19:26:21.306Z,101068.94
2022-09-24T19:28:50.932Z,101069.72
2022-09-24T19:31:22.157Z,101070.09
2022-09-24T19:33:51.000Z,101077.03
2022-09-24T19:36:19.256Z,101079.78
2022-09-24T19:38:47.459Z,101077.03
2022-09-24T19:41:21.287Z,101073.06
2022-09-24T19:43:50.849Z,101068.28
2022-09-24T19:46:21.234Z,101075.25
2022-09-24T19:48:50.473Z,101071.28
2022-09-24T19:51:22.480Z,101071.16
2022-09-24T19:53:51.673Z,101075.75
2022-09-24T19:56:22.451Z,101074.84
2022-09-24T19:58:52.761Z,101078.97
2022-09-24T20:01:23.712Z,101081.50
2022-09-24T20:03:52.346Z,101071.94
2022-09-24T20:06:22.623Z,101080.03
2022-09-24T20:08:50.522Z,101071.00
2022-09-24T20:11:20.858Z,101076.50
2022-09-24T20:13:49.079Z,101081.28
2022-09-24T20:16:19.355Z,101085.16
2022-09-24T20:18:49.666Z,101081.97
2022-09-24T20:21:18.532Z,101073.53
2022-09-24T20:23:47.719Z,101086.06
2022-09-24T20:26:35.131Z,101081.06
2022-09-24T20:29:03.806Z,101086.31
2022-09-24T20:31:31.654Z,101086.75
2022-09-24T20:34:03.177Z,101094.31
2022-09-24T20:36:32.150Z,101097.03
2022-09-24T20:39:00.161Z,101098.28
2022-09-24T20:41:27.957Z,101098.16
2022-09-24T20:43:56.500Z,101097.47
2022-09-24T20:46:26.497Z,101096.78
2022-09-24T20:48:55.550Z,101095.63
2022-09-24T20:51:26.340Z,101095.97
2022-09-24T20:53:55.196Z,101095.88
2022-09-24T20:56:26.832Z,101093.03
2022-09-24T20:58:55.335Z,101110.84
2022-09-24T21:01:23.470Z,101102.06
2022-09-24T21:03:51.894Z,101098.19
2022-09-24T21:06:23.054Z,101096.38
2022-09-24T21:08:52.966Z,101099.72
2022-09-24T21:11:22.923Z,101099.59
2022-09-24T21:13:53.194Z,101092.06
2022-09-24T21:16:23.384Z,101094.13
2022-09-24T21:18:55.450Z,101092.56
2022-09-24T21:21:25.100Z,101093.22
2022-09-24T21:23:56.765Z,101103.28
2022-09-24T21:26:27.404Z,101097.78
2022-09-24T21:28:56.655Z,101106.47
2022-09-24T21:31:26.280Z,101111.00
2022-09-24T21:33:54.682Z,101105.44
2022-09-24T21:36:24.379Z,101112.16
2022-09-24T21:38:55.340Z,101108.53
2022-09-24T21:41:24.278Z,101113.66
2022-09-24T21:43:53.547Z,101109.63
2022-09-24T21:46:21.434Z,101118.75
2022-09-24T21:48:51.283Z,101114.44
2022-09-24T21:51:21.352Z,101116.81
2022-09-24T21:53:50.003Z,101115.72
2022-09-24T21:56:20.066Z,101115.34
2022-09-24T21:58:48.112Z,101115.56
2022-09-24T22:01:17.680Z,101123.44
2022-09-24T22:03:46.687Z,101118.22
2022-09-24T22:06:15.204Z,101119.66
2022-09-24T22:08:44.948Z,101120.38
2022-09-24T22:13:45.066Z,101124.47
2022-09-24T22:16:13.138Z,101131.72
2022-09-24T22:18:41.505Z,101126.03
2022-09-24T22:21:11.538Z,101125.91
2022-09-24T22:23:40.214Z,101126.25
2022-09-24T22:26:09.518Z,101121.94
2022-09-24T22:28:38.052Z,101123.53
2022-09-24T22:31:09.850Z,101122.84
2022-09-24T22:33:55.864Z,101126.94
2022-09-24T22:36:24.136Z,101129.47
2022-09-24T22:38:53.015Z,101128.00
2022-09-24T22:41:21.405Z,101124.00
2022-09-24T22:43:49.449Z,101122.38
2022-09-24T22:46:19.346Z,101129.44
2022-09-24T22:48:48.106Z,101124.44
2022-09-24T22:51:16.069Z,101127.63
2022-09-24T22:53:43.817Z,101120.44
2022-09-24T22:56:13.275Z,101122.84
2022-09-24T22:58:43.779Z,101122.38
2022-09-24T23:01:13.576Z,101122.84
2022-09-24T23:03:43.012Z,101120.78
2022-09-24T23:06:11.958Z,101129.66
2022-09-24T23:08:41.104Z,101123.25
2022-09-24T23:11:10.517Z,101130.13
2022-09-24T23:13:39.425Z,101132.97
2022-09-24T23:16:10.302Z,101125.22
2022-09-24T23:18:38.409Z,101124.44
2022-09-24T23:21:10.738Z,101119.41
2022-09-24T23:23:38.597Z,101115.41
2022-09-24T23:26:11.978Z,101119.66
2022-09-24T23:28:42.357Z,101118.09
2022-09-24T23:31:13.434Z,101119.22
2022-09-24T23:33:41.975Z,101115.25
2022-09-24T23:36:13.254Z,101118.44
2022-09-24T23:38:42.068Z,101116.84
2022-09-24T23:41:11.764Z,101124.94
2022-09-24T23:43:39.985Z,101128.69
2022-09-24T23:46:08.245Z,101125.94
2022-09-24T23:48:36.826Z,101124.81
2022-09-24T23:51:05.325Z,101125.50
2022-09-24T23:53:35.451Z,101137.56
2022-09-24T23:56:04.690Z,101134.34
2022-09-24T23:58:32.821Z,101134.44
